»·PEaware :: SKY385 KORS-KEAT

SKY385 :: KORS-KEAT

FLIGHT INFORMATION

Flight Status: Arrived
Operator:
Sky High Charters
More flights by this operator :: More flights under this callsign
Pilot: Justin Z. (25672)
Aircraft: SOCATA TBM-900
(TBM9)
More flights by this aircraft type
Origin: KORS Orcas I
United States
Destination: KEAT Pangborn Meml
United States
More flights between these airports :: More routes between these airports
Route: FEGBA2 FEGBA SEA V2 ELN V25 EAT
File this flight plan on PilotEdge
Remarks: +CW / SKY-3 (LEG 3)
Altitude:
(Current/Filed)
9,000ft
Speed:
(Current/Filed)
225kts
Departed: 02-Sep-19 12:10 PM
Arrived: 02-Sep-19 01:20 PM
Distance/Time
Traveled:
134nm/1:10
Distance/Time
To Go:
Arrived

Flight Plot

Page will automatically refresh every two minutes.

Flight plan parsing failed; only flown route is shown


Map Options




Map Legend


Flown Route
Filed Route
Departure Airport
Arrival Airport
Navaid (VOR, NDB)
Fix

Horizontal Profiles

Position Reports

Time Latitude Longitude Heading Altitude Ground
Speed
02-Sep-19 11:59 48.705419 -122.909729 354 35ft 0kts
02-Sep-19 12:00 48.705419 -122.909729 354 35ft 0kts
02-Sep-19 12:01 48.705419 -122.909729 354 35ft 0kts
02-Sep-19 12:02 48.705419 -122.909729 354 35ft 0kts
02-Sep-19 12:03 48.705419 -122.909729 354 35ft 0kts
02-Sep-19 12:04 48.705419 -122.909729 354 35ft 0kts
02-Sep-19 12:05 48.705419 -122.909729 354 35ft 0kts
02-Sep-19 12:06 48.706660 -122.910019 0 33ft 14kts
02-Sep-19 12:07 48.711974 -122.910005 356 19ft 1kts
02-Sep-19 12:08 48.711975 -122.910005 356 19ft 0kts
02-Sep-19 12:09 48.712163 -122.910136 311 18ft 8kts
02-Sep-19 12:10 48.701508 -122.910413 175 201ft 106kts
02-Sep-19 12:11 48.671715 -122.909737 178 1820ft 119kts
02-Sep-19 12:12 48.635831 -122.911086 180 3548ft 147kts
02-Sep-19 12:13 48.591617 -122.911413 178 5145ft 176kts
02-Sep-19 12:14 48.541805 -122.911714 177 6666ft 186kts
02-Sep-19 12:15 48.494684 -122.892105 157 8129ft 174kts
02-Sep-19 12:15 48.457528 -122.871217 157 9036ft 184kts
02-Sep-19 12:17 48.395572 -122.836494 160 9034ft 215kts
02-Sep-19 12:18 48.340933 -122.805961 160 9041ft 211kts
02-Sep-19 12:18 48.295529 -122.780624 160 9045ft 210kts
02-Sep-19 12:19 48.240900 -122.750208 160 9045ft 210kts
02-Sep-19 12:21 48.176848 -122.714632 160 9045ft 210kts
02-Sep-19 12:21 48.131200 -122.689338 160 9045ft 210kts
02-Sep-19 12:22 48.076516 -122.659100 160 9044ft 211kts
02-Sep-19 12:23 48.020226 -122.628049 160 9055ft 220kts
02-Sep-19 12:24 47.962474 -122.596257 160 9046ft 223kts
02-Sep-19 12:25 47.903918 -122.564105 160 9035ft 224kts
02-Sep-19 12:26 47.846109 -122.532445 160 9029ft 225kts
02-Sep-19 12:27 47.787959 -122.500674 160 9024ft 225kts
02-Sep-19 12:28 47.729785 -122.468964 160 9018ft 225kts
02-Sep-19 12:29 47.672550 -122.437834 160 9006ft 213kts
02-Sep-19 12:30 47.618248 -122.408369 160 9008ft 207kts
02-Sep-19 12:31 47.564452 -122.379239 160 9008ft 205kts
02-Sep-19 12:32 47.511319 -122.350532 160 9007ft 204kts
02-Sep-19 12:33 47.462532 -122.324227 161 9008ft 204kts
02-Sep-19 12:34 47.430834 -122.287977 108 9039ft 204kts
02-Sep-19 12:35 47.414000 -122.209181 107 9003ft 204kts
02-Sep-19 12:36 47.397159 -122.130407 107 9001ft 209kts
02-Sep-19 12:37 47.379383 -122.047568 107 9000ft 210kts
02-Sep-19 12:38 47.361638 -121.965200 107 9000ft 211kts
02-Sep-19 12:39 47.343671 -121.882130 107 9000ft 211kts
02-Sep-19 12:40 47.325497 -121.798452 107 9006ft 220kts
02-Sep-19 12:41 47.306284 -121.710362 107 9002ft 227kts
02-Sep-19 12:42 47.286718 -121.621018 107 8999ft 229kts
02-Sep-19 12:43 47.266960 -121.531186 107 8999ft 230kts
02-Sep-19 12:44 47.247232 -121.441887 107 8999ft 230kts
02-Sep-19 12:45 47.227172 -121.351350 109 8989ft 234kts
02-Sep-19 12:46 47.213473 -121.289932 110 8979ft 236kts
02-Sep-19 12:47 47.192883 -121.197827 109 8964ft 236kts
02-Sep-19 12:48 47.176036 -121.122774 109 8962ft 237kts
02-Sep-19 12:49 47.155140 -121.030055 109 8963ft 239kts
02-Sep-19 12:50 47.134021 -120.936703 108 8963ft 241kts
02-Sep-19 12:51 47.112841 -120.843446 108 8963ft 241kts
02-Sep-19 12:52 47.091452 -120.749716 108 8963ft 241kts
02-Sep-19 12:53 47.069926 -120.655765 109 8964ft 241kts
02-Sep-19 12:54 47.048481 -120.562646 109 8962ft 240kts
02-Sep-19 12:55 47.031098 -120.468798 74 8936ft 242kts
02-Sep-19 12:56 47.086149 -120.417936 23 8964ft 241kts
02-Sep-19 12:57 47.146712 -120.378152 23 9006ft 243kts
02-Sep-19 12:58 47.207635 -120.337931 23 8953ft 241kts
02-Sep-19 12:59 47.268275 -120.297949 23 8938ft 231kts
02-Sep-19 13:00 47.320515 -120.263380 23 8916ft 183kts
02-Sep-19 13:01 47.364047 -120.234517 23 8933ft 168kts
02-Sep-19 13:02 47.403122 -120.200881 61 8867ft 166kts
02-Sep-19 13:03 47.418367 -120.131616 96 7950ft 188kts
02-Sep-19 13:04 47.400617 -120.058019 92 7004ft 195kts
02-Sep-19 13:05 47.400391 -119.977941 89 6013ft 194kts
02-Sep-19 13:06 47.385716 -119.907462 123 5606ft 173kts
02-Sep-19 13:07 47.351250 -119.862580 153 5280ft 161kts
02-Sep-19 13:08 47.308479 -119.849224 182 5059ft 155kts
02-Sep-19 13:09 47.268003 -119.866591 210 4931ft 148kts
02-Sep-19 13:10 47.240149 -119.910536 244 4620ft 156kts
02-Sep-19 13:11 47.234163 -119.975478 281 4079ft 168kts
02-Sep-19 13:12 47.254713 -120.030895 316 3806ft 133kts
02-Sep-19 13:13 47.284787 -120.058395 332 3782ft 129kts
02-Sep-19 13:14 47.317045 -120.083052 332 3596ft 131kts
02-Sep-19 13:15 47.349964 -120.108197 332 3219ft 138kts
02-Sep-19 13:16 47.366100 -120.154889 293 2730ft 133kts
02-Sep-19 13:17 47.385656 -120.187603 312 1631ft 89kts
02-Sep-19 13:18 47.398324 -120.206186 317 1252ft 46kts
02-Sep-19 13:19 47.400914 -120.208190 69 1252ft 0kts
02-Sep-19 13:20 47.401835 -120.207181 310 1252ft 13kts
02-Sep-19 13:21 47.402074 -120.207613 318 1252ft 0kts
02-Sep-19 13:22 47.402074 -120.207613 318 1252ft 0kts
02-Sep-19 13:23 47.402074 -120.207613 318 1252ft 0kts

Navigation Log

Ident Type
Flight plan parsing failed, navigation log unavailable